createdAt,value
2023-05-18T00:00:59.329Z,8.65
2023-05-18T00:01:59.319Z,8.65
2023-05-18T00:02:59.442Z,8.65
2023-05-18T00:03:59.422Z,8.65
2023-05-18T00:04:59.314Z,8.64
2023-05-18T00:05:59.278Z,8.63
2023-05-18T00:06:59.301Z,8.65
2023-05-18T00:07:59.253Z,8.57
2023-05-18T00:08:59.282Z,8.58
2023-05-18T00:09:59.292Z,8.57
2023-05-18T00:10:59.246Z,8.55
2023-05-18T00:11:59.265Z,8.57
2023-05-18T00:12:59.201Z,8.52
2023-05-18T00:13:59.199Z,8.47
2023-05-18T00:14:59.201Z,8.46
2023-05-18T00:15:59.229Z,8.45
2023-05-18T00:16:59.194Z,8.45
2023-05-18T00:17:59.179Z,8.42
2023-05-18T00:18:59.197Z,8.39
2023-05-18T00:19:59.140Z,8.37
2023-05-18T00:20:59.262Z,8.39
2023-05-18T00:21:59.161Z,8.36
2023-05-18T00:22:59.131Z,8.32
2023-05-18T00:23:59.298Z,8.28
2023-05-18T00:24:59.073Z,8.27
2023-05-18T00:25:59.082Z,8.28
2023-05-18T00:26:59.086Z,8.27
2023-05-18T00:27:59.085Z,8.21
2023-05-18T00:28:59.031Z,8.20
2023-05-18T00:29:59.018Z,8.20
2023-05-18T00:30:59.021Z,8.22
2023-05-18T00:31:59.119Z,8.21
2023-05-18T00:32:59.086Z,8.21
2023-05-18T00:33:59.031Z,8.18
2023-05-18T00:34:59.045Z,8.12
2023-05-18T00:35:58.994Z,8.10
2023-05-18T00:36:59.015Z,8.12
2023-05-18T00:37:58.994Z,8.12
2023-05-18T00:38:58.927Z,8.12
2023-05-18T00:39:58.944Z,8.12
2023-05-18T00:40:58.968Z,8.10
2023-05-18T00:41:58.918Z,8.10
2023-05-18T00:42:58.926Z,8.10
2023-05-18T00:43:58.958Z,8.10
2023-05-18T00:44:58.940Z,8.07
2023-05-18T00:45:59.155Z,8.04
2023-05-18T00:46:58.851Z,8.04
2023-05-18T00:47:58.903Z,8.02
2023-05-18T00:48:58.845Z,8.00
2023-05-18T00:49:58.832Z,7.94
2023-05-18T00:50:58.813Z,7.95
2023-05-18T00:51:58.841Z,7.91
2023-05-18T00:52:58.861Z,7.91
2023-05-18T00:53:58.781Z,7.91
2023-05-18T00:54:58.792Z,7.89
2023-05-18T00:55:58.759Z,7.89
2023-05-18T00:56:58.770Z,7.88
2023-05-18T00:57:58.764Z,7.88
2023-05-18T00:58:58.771Z,7.85
2023-05-18T00:59:58.709Z,7.86
2023-05-18T01:00:58.746Z,7.85
2023-05-18T01:01:58.724Z,7.84
2023-05-18T01:02:58.885Z,7.82
2023-05-18T01:03:58.742Z,7.81
2023-05-18T01:04:58.703Z,7.79
2023-05-18T01:05:58.642Z,7.77
2023-05-18T01:06:58.646Z,7.76
2023-05-18T01:07:58.634Z,7.76
2023-05-18T01:08:58.639Z,7.74
2023-05-18T01:09:58.624Z,7.73
2023-05-18T01:10:58.651Z,7.71
2023-05-18T01:11:58.591Z,7.71
2023-05-18T01:12:58.592Z,7.70
2023-05-18T01:13:58.564Z,7.69
2023-05-18T01:14:58.587Z,7.69
2023-05-18T01:15:58.553Z,7.69
2023-05-18T01:16:58.597Z,7.67
2023-05-18T01:17:58.660Z,7.69
2023-05-18T01:18:58.567Z,7.66
2023-05-18T01:19:58.549Z,7.62
2023-05-18T01:20:58.489Z,7.62
2023-05-18T01:21:58.515Z,7.57
2023-05-18T01:22:58.480Z,7.58
2023-05-18T01:23:58.459Z,7.54
2023-05-18T01:24:58.462Z,7.55
2023-05-18T01:25:58.436Z,7.55
2023-05-18T01:26:58.444Z,7.54
2023-05-18T01:27:58.409Z,7.52
2023-05-18T01:28:58.445Z,7.50
2023-05-18T01:29:58.398Z,7.50
2023-05-18T01:30:58.466Z,7.48
2023-05-18T01:31:58.400Z,7.45
2023-05-18T01:32:58.417Z,7.47
2023-05-18T01:33:58.605Z,7.45
2023-05-18T01:34:58.361Z,7.41
2023-05-18T01:35:58.335Z,7.37
2023-05-18T01:36:58.368Z,7.36
2023-05-18T01:37:58.327Z,7.34
2023-05-18T01:38:58.336Z,7.33
2023-05-18T01:39:58.330Z,7.32
2023-05-18T01:40:58.275Z,7.29
2023-05-18T01:41:58.543Z,7.26
2023-05-18T01:42:58.286Z,7.24
2023-05-18T01:43:58.277Z,7.26
2023-05-18T01:44:58.242Z,7.24
2023-05-18T01:45:58.295Z,7.26
2023-05-18T01:46:58.250Z,7.29
2023-05-18T01:47:58.307Z,7.27
2023-05-18T01:48:58.228Z,7.27
2023-05-18T01:49:58.233Z,7.27
2023-05-18T01:50:58.195Z,7.26
2023-05-18T01:51:58.267Z,7.29
2023-05-18T01:52:58.287Z,7.26
2023-05-18T01:53:58.153Z,7.27
2023-05-18T01:54:58.157Z,7.26
2023-05-18T01:55:58.163Z,7.26
2023-05-18T01:56:58.121Z,7.24
2023-05-18T01:57:58.101Z,7.23
2023-05-18T01:58:58.116Z,7.21
2023-05-18T01:59:58.101Z,7.23
2023-05-18T02:00:58.429Z,7.19
2023-05-18T02:01:59.607Z,7.21
2023-05-18T02:02:58.163Z,7.19
2023-05-18T02:03:58.173Z,7.19
2023-05-18T02:04:58.042Z,7.18
2023-05-18T02:05:58.036Z,7.16
2023-05-18T02:06:58.021Z,7.15
2023-05-18T02:07:58.057Z,7.16
2023-05-18T02:08:58.028Z,7.16
2023-05-18T02:09:58.026Z,7.15
2023-05-18T02:10:57.996Z,7.15
2023-05-18T02:11:57.978Z,7.15
2023-05-18T02:12:57.959Z,7.12
2023-05-18T02:13:57.956Z,7.12
2023-05-18T02:14:58.290Z,7.12
2023-05-18T02:15:57.941Z,7.09
2023-05-18T02:16:57.902Z,7.08
2023-05-18T02:17:57.957Z,7.07
2023-05-18T02:18:58.003Z,7.00
2023-05-18T02:19:57.890Z,7.00
2023-05-18T02:20:57.864Z,6.96
2023-05-18T02:21:58.110Z,6.94
2023-05-18T02:22:58.029Z,6.93
2023-05-18T02:23:58.826Z,6.91
2023-05-18T02:24:57.842Z,6.90
2023-05-18T02:25:57.824Z,6.89
2023-05-18T02:26:57.810Z,6.86
2023-05-18T02:27:57.816Z,6.87
2023-05-18T02:28:58.800Z,6.87
2023-05-18T02:29:57.775Z,6.83
2023-05-18T02:30:58.322Z,6.81
2023-05-18T02:31:57.825Z,6.81
2023-05-18T02:32:57.795Z,6.81
2023-05-18T02:33:57.756Z,6.78
2023-05-18T02:34:57.715Z,6.78
2023-05-18T02:35:57.729Z,6.78
2023-05-18T02:36:57.724Z,6.73
2023-05-18T02:37:57.721Z,6.75
2023-05-18T02:38:57.661Z,6.72
2023-05-18T02:39:57.691Z,6.71
2023-05-18T02:40:57.671Z,6.65
2023-05-18T02:41:57.663Z,6.65
2023-05-18T02:42:57.990Z,6.65
2023-05-18T02:43:57.854Z,6.64
2023-05-18T02:44:57.675Z,6.61
2023-05-18T02:45:57.644Z,6.63
2023-05-18T02:46:57.629Z,6.63
2023-05-18T02:47:57.646Z,6.60
2023-05-18T02:48:57.653Z,6.60
2023-05-18T02:49:57.690Z,6.55
2023-05-18T02:50:57.639Z,6.57
2023-05-18T02:51:57.872Z,6.54
2023-05-18T02:52:57.514Z,6.53
2023-05-18T02:53:57.553Z,6.51
2023-05-18T02:54:57.537Z,6.50
2023-05-18T02:55:57.495Z,6.50
2023-05-18T02:56:57.476Z,6.48
2023-05-18T02:57:57.559Z,6.50
2023-05-18T02:58:57.499Z,6.46
2023-05-18T02:59:57.466Z,6.48
2023-05-18T03:00:57.503Z,6.48
2023-05-18T03:01:57.465Z,6.48
2023-05-18T03:02:57.515Z,6.46
2023-05-18T03:03:58.452Z,6.46
2023-05-18T03:04:57.588Z,6.45
2023-05-18T03:05:57.425Z,6.43
2023-05-18T03:06:57.538Z,6.46
2023-05-18T03:07:57.395Z,6.45
2023-05-18T03:08:58.323Z,6.46
2023-05-18T03:09:57.374Z,6.42
2023-05-18T03:10:57.341Z,6.42
2023-05-18T03:11:57.348Z,6.40
2023-05-18T03:12:57.331Z,6.40
2023-05-18T03:13:58.297Z,6.39
2023-05-18T03:14:57.290Z,6.39
2023-05-18T03:15:57.379Z,6.40
2023-05-18T03:16:57.402Z,6.39
2023-05-18T03:17:57.316Z,6.40
2023-05-18T03:18:57.290Z,6.40
2023-05-18T03:19:57.311Z,6.39
2023-05-18T03:20:57.271Z,6.39
2023-05-18T03:21:57.248Z,6.38
2023-05-18T03:22:57.277Z,6.38
2023-05-18T03:23:57.277Z,6.38
2023-05-18T03:24:57.181Z,6.33
2023-05-18T03:25:57.186Z,6.35
2023-05-18T03:26:57.171Z,6.32
2023-05-18T03:27:57.209Z,6.28
2023-05-18T03:28:57.156Z,6.30
2023-05-18T03:29:57.140Z,6.28
2023-05-18T03:30:57.157Z,6.28
2023-05-18T03:31:57.151Z,6.27
2023-05-18T03:32:57.267Z,6.25
2023-05-18T03:33:57.110Z,6.24
2023-05-18T03:34:57.086Z,6.21
2023-05-18T03:35:57.076Z,6.24
2023-05-18T03:36:57.093Z,6.24
2023-05-18T03:37:57.099Z,6.24
2023-05-18T03:38:57.050Z,6.21
2023-05-18T03:39:57.046Z,6.20
2023-05-18T03:40:57.073Z,6.20
2023-05-18T03:41:57.038Z,6.24
2023-05-18T03:42:56.998Z,6.21
2023-05-18T03:43:57.948Z,6.24
2023-05-18T03:44:56.996Z,6.21
2023-05-18T03:45:57.007Z,6.21
2023-05-18T03:46:56.979Z,6.20
2023-05-18T03:47:56.998Z,6.20
2023-05-18T03:48:56.956Z,6.20
2023-05-18T03:49:56.982Z,6.20
2023-05-18T03:50:57.717Z,6.17
2023-05-18T03:51:55.950Z,6.17
2023-05-18T03:52:56.964Z,6.17
2023-05-18T03:53:56.914Z,6.20
2023-05-18T03:54:56.913Z,6.19
2023-05-18T03:55:56.876Z,6.19
2023-05-18T03:56:56.894Z,6.19
2023-05-18T03:57:56.867Z,6.17
2023-05-18T03:58:57.067Z,6.19
2023-05-18T03:59:56.870Z,6.19
2023-05-18T04:00:56.826Z,6.17
2023-05-18T04:01:57.476Z,6.17
2023-05-18T04:02:56.883Z,6.17
2023-05-18T04:03:56.912Z,6.19
2023-05-18T04:04:56.784Z,6.17
2023-05-18T04:05:57.423Z,6.14
2023-05-18T04:06:56.760Z,6.17
2023-05-18T04:07:56.755Z,6.16
2023-05-18T04:08:58.324Z,6.16
2023-05-18T04:09:56.733Z,6.16
2023-05-18T04:10:56.726Z,6.14
2023-05-18T04:11:56.766Z,6.14
2023-05-18T04:12:56.690Z,6.17
2023-05-18T04:13:56.701Z,6.17
2023-05-18T04:14:56.681Z,6.19
2023-05-18T04:15:56.782Z,6.20
2023-05-18T04:16:56.677Z,6.20
2023-05-18T04:17:56.698Z,6.20
2023-05-18T04:18:56.712Z,6.21
2023-05-18T04:19:56.604Z,6.24
2023-05-18T04:20:56.623Z,6.24
2023-05-18T04:21:56.615Z,6.25
2023-05-18T04:22:56.686Z,6.28
2023-05-18T04:23:56.691Z,6.30
2023-05-18T04:24:56.576Z,6.32
2023-05-18T04:25:56.588Z,6.38
2023-05-18T04:26:56.537Z,6.39
2023-05-18T04:27:56.549Z,6.42
2023-05-18T04:28:56.548Z,6.40
2023-05-18T04:29:56.530Z,6.45
2023-05-18T04:30:56.754Z,6.48
2023-05-18T04:31:56.552Z,6.55
2023-05-18T04:32:56.504Z,6.55
2023-05-18T04:33:56.488Z,6.55
2023-05-18T04:34:56.603Z,6.58
2023-05-18T04:35:56.465Z,6.57
2023-05-18T04:36:56.422Z,6.58
2023-05-18T04:37:56.439Z,6.63
2023-05-18T04:38:56.409Z,6.61
2023-05-18T04:39:56.446Z,6.64
2023-05-18T04:40:56.398Z,6.63
2023-05-18T04:41:56.462Z,6.64
2023-05-18T04:42:56.375Z,6.68
2023-05-18T04:43:56.372Z,6.65
2023-05-18T04:44:56.359Z,6.69
2023-05-18T04:45:56.396Z,6.69
2023-05-18T04:46:56.348Z,6.71
2023-05-18T04:47:56.362Z,6.73
2023-05-18T04:48:56.350Z,6.73
2023-05-18T04:49:56.296Z,6.72
2023-05-18T04:50:56.296Z,6.76
2023-05-18T04:51:56.331Z,6.78
2023-05-18T04:52:56.270Z,6.79
2023-05-18T04:53:56.335Z,6.82
2023-05-18T04:54:56.239Z,6.87
2023-05-18T04:55:56.248Z,6.89
2023-05-18T04:56:56.225Z,6.89
2023-05-18T04:57:56.220Z,6.90
2023-05-18T04:58:56.212Z,6.94
2023-05-18T04:59:56.459Z,6.94
2023-05-18T05:00:56.265Z,6.93
2023-05-18T05:01:56.226Z,6.99
2023-05-18T05:02:56.321Z,6.94
2023-05-18T05:03:58.938Z,7.00
2023-05-18T05:04:56.150Z,7.01
2023-05-18T05:05:56.140Z,7.11
2023-05-18T05:06:56.115Z,7.14
2023-05-18T05:07:56.141Z,7.16
2023-05-18T05:08:56.106Z,7.21
2023-05-18T05:09:56.348Z,7.27
2023-05-18T05:10:56.076Z,7.33
2023-05-18T05:11:56.054Z,7.34
2023-05-18T05:12:56.053Z,7.36
2023-05-18T05:13:56.052Z,7.39
2023-05-18T05:14:56.095Z,7.39
2023-05-18T05:15:56.090Z,7.42
2023-05-18T05:16:56.021Z,7.42
2023-05-18T05:17:56.005Z,7.44
2023-05-18T05:18:56.033Z,7.54
2023-05-18T05:19:55.989Z,7.60
2023-05-18T05:20:56.021Z,7.62
2023-05-18T05:21:55.960Z,7.66
2023-05-18T05:22:56.010Z,7.71
2023-05-18T05:23:55.943Z,7.76
2023-05-18T05:24:55.935Z,7.77
2023-05-18T05:25:55.917Z,7.82
2023-05-18T05:26:55.920Z,7.89
2023-05-18T05:27:55.909Z,7.95
2023-05-18T05:28:55.895Z,7.92
2023-05-18T05:29:56.440Z,7.96
2023-05-18T05:30:55.872Z,8.06
2023-05-18T05:31:55.985Z,8.09
2023-05-18T05:32:55.850Z,8.13
2023-05-18T05:33:55.844Z,8.20
2023-05-18T05:34:55.826Z,8.20
2023-05-18T05:35:55.845Z,8.24
2023-05-18T05:36:55.837Z,8.24
2023-05-18T05:37:55.784Z,8.25
2023-05-18T05:38:55.792Z,8.31
2023-05-18T05:39:55.776Z,8.37
2023-05-18T05:40:55.767Z,8.40
2023-05-18T05:41:55.763Z,8.50
2023-05-18T05:42:55.761Z,8.50
2023-05-18T05:43:55.725Z,8.58
2023-05-18T05:44:55.710Z,8.67
2023-05-18T05:45:55.717Z,8.73
2023-05-18T05:46:55.810Z,8.80
2023-05-18T05:47:55.790Z,8.80
2023-05-18T05:48:55.674Z,8.93
2023-05-18T05:49:55.657Z,8.88
2023-05-18T05:50:55.694Z,8.91
2023-05-18T05:51:55.662Z,8.93
2023-05-18T05:52:55.957Z,9.04
2023-05-18T05:53:56.015Z,9.15
2023-05-18T05:54:55.661Z,9.22
2023-05-18T05:55:55.735Z,9.22
2023-05-18T05:56:55.601Z,9.23
2023-05-18T05:57:55.586Z,9.32
2023-05-18T05:58:55.583Z,9.30
2023-05-18T05:59:55.560Z,9.27
2023-05-18T06:00:55.593Z,9.35
2023-05-18T06:01:55.666Z,9.35
2023-05-18T06:02:55.639Z,9.40
2023-05-18T06:03:55.633Z,9.50
2023-05-18T06:04:55.497Z,9.53
2023-05-18T06:05:55.528Z,9.53
2023-05-18T06:06:55.491Z,9.59
2023-05-18T06:07:55.515Z,9.56
2023-05-18T06:08:55.552Z,9.60
2023-05-18T06:09:55.471Z,9.58
2023-05-18T06:10:55.511Z,9.67
2023-05-18T06:11:55.465Z,9.73
2023-05-18T06:12:55.473Z,9.77
2023-05-18T06:13:55.665Z,9.83
2023-05-18T06:14:55.428Z,9.77
2023-05-18T06:15:55.427Z,9.81
2023-05-18T06:16:55.523Z,9.92
2023-05-18T06:17:55.410Z,10.06
2023-05-18T06:18:55.398Z,10.07
2023-05-18T06:19:55.392Z,10.10
2023-05-18T06:20:55.402Z,10.13
2023-05-18T06:21:55.432Z,10.11
2023-05-18T06:22:55.358Z,10.17
2023-05-18T06:23:55.609Z,10.31
2023-05-18T06:24:55.403Z,10.36
2023-05-18T06:25:55.330Z,10.49
2023-05-18T06:26:55.283Z,10.62
2023-05-18T06:27:55.430Z,10.72
2023-05-18T06:28:55.336Z,10.70
2023-05-18T06:29:55.237Z,10.68
2023-05-18T06:30:55.246Z,10.68
2023-05-18T06:31:55.316Z,10.80
2023-05-18T06:32:55.301Z,10.88
2023-05-18T06:33:55.239Z,10.91
2023-05-18T06:34:55.200Z,10.72
2023-05-18T06:35:55.220Z,10.75
2023-05-18T06:36:55.233Z,10.83
2023-05-18T06:37:55.174Z,10.76
2023-05-18T06:38:55.279Z,10.86
2023-05-18T06:39:55.243Z,10.94
2023-05-18T06:40:55.134Z,11.08
2023-05-18T06:41:55.160Z,11.16
2023-05-18T06:42:55.216Z,11.31
2023-05-18T06:43:55.272Z,11.39
2023-05-18T06:44:55.100Z,11.48
2023-05-18T06:45:55.151Z,11.49
2023-05-18T06:46:55.068Z,11.53
2023-05-18T06:47:55.195Z,11.60
2023-05-18T06:48:55.112Z,11.70
2023-05-18T06:49:55.067Z,11.77
2023-05-18T06:50:55.178Z,11.93
2023-05-18T06:51:55.104Z,11.96
2023-05-18T06:52:55.041Z,11.81
2023-05-18T06:53:55.060Z,11.66
2023-05-18T06:54:54.995Z,11.70
2023-05-18T06:55:55.002Z,11.57
2023-05-18T06:56:55.003Z,11.53
2023-05-18T06:57:54.974Z,11.66
2023-05-18T06:58:54.977Z,11.60
2023-05-18T06:59:54.944Z,11.74
2023-05-18T07:00:54.926Z,11.69
2023-05-18T07:01:55.025Z,11.62
2023-05-18T07:02:54.987Z,11.59
2023-05-18T07:03:54.952Z,11.66
2023-05-18T07:04:54.869Z,11.78
2023-05-18T07:05:54.879Z,11.85
2023-05-18T07:06:54.864Z,11.81
2023-05-18T07:07:54.969Z,11.84
2023-05-18T07:08:54.870Z,11.90
2023-05-18T07:09:54.835Z,12.00
2023-05-18T07:10:54.909Z,11.96
2023-05-18T07:11:54.805Z,12.11
2023-05-18T07:12:54.858Z,12.21
2023-05-18T07:13:54.813Z,12.19
2023-05-18T07:14:54.783Z,12.18
2023-05-18T07:15:54.797Z,12.15
2023-05-18T07:16:54.765Z,12.04
2023-05-18T07:17:54.767Z,12.12
2023-05-18T07:18:54.852Z,12.34
2023-05-18T07:19:54.753Z,12.33
2023-05-18T07:20:54.736Z,12.29
2023-05-18T07:21:54.741Z,12.38
2023-05-18T07:22:54.697Z,12.38
2023-05-18T07:23:54.691Z,12.37
2023-05-18T07:24:54.696Z,12.61
2023-05-18T07:25:54.687Z,12.79
2023-05-18T07:26:54.671Z,12.96
2023-05-18T07:27:54.884Z,12.85
2023-05-18T07:28:54.631Z,12.69
2023-05-18T07:29:54.629Z,12.58
2023-05-18T07:30:54.623Z,12.54
2023-05-18T07:31:54.830Z,12.55
2023-05-18T07:32:54.670Z,12.52
2023-05-18T07:33:54.593Z,12.73
2023-05-18T07:34:54.598Z,12.87
2023-05-18T07:35:54.552Z,12.99
2023-05-18T07:36:54.589Z,13.09
2023-05-18T07:37:54.556Z,13.28
2023-05-18T07:38:54.563Z,13.46
2023-05-18T07:39:54.579Z,13.53
2023-05-18T07:40:54.537Z,13.41
2023-05-18T07:41:54.489Z,13.31
2023-05-18T07:42:54.474Z,13.24
2023-05-18T07:43:54.507Z,13.35
2023-05-18T07:44:54.480Z,13.25
2023-05-18T07:45:54.448Z,13.29
2023-05-18T07:46:54.502Z,13.31
2023-05-18T07:47:54.504Z,13.47
2023-05-18T07:48:54.431Z,13.55
2023-05-18T07:49:55.950Z,13.69
2023-05-18T07:50:54.422Z,13.65
2023-05-18T07:51:54.412Z,13.59
2023-05-18T07:52:54.401Z,13.53
2023-05-18T07:53:54.410Z,13.53
2023-05-18T07:54:54.381Z,13.55
2023-05-18T07:55:54.373Z,13.72
2023-05-18T07:56:54.327Z,13.81
2023-05-18T07:57:54.352Z,13.79
2023-05-18T07:58:54.310Z,13.79
2023-05-18T07:59:54.356Z,13.68
2023-05-18T08:00:54.341Z,13.61
2023-05-18T08:01:54.432Z,13.57
2023-05-18T08:02:54.400Z,13.55
2023-05-18T08:03:54.412Z,13.69
2023-05-18T08:04:54.306Z,13.65
2023-05-18T08:05:54.242Z,13.62
2023-05-18T08:06:54.237Z,13.79
2023-05-18T08:07:54.263Z,13.90
2023-05-18T08:08:54.231Z,13.98
2023-05-18T08:09:54.265Z,14.01
2023-05-18T08:10:54.198Z,13.91
2023-05-18T08:11:54.883Z,13.83
2023-05-18T08:12:54.191Z,13.87
2023-05-18T08:13:54.150Z,13.80
2023-05-18T08:14:55.006Z,13.94
2023-05-18T08:16:09.924Z,14.24
2023-05-18T08:16:54.206Z,14.34
2023-05-18T08:17:54.245Z,14.21
2023-05-18T08:18:54.220Z,14.17
2023-05-18T08:19:54.114Z,14.20
2023-05-18T08:20:54.103Z,14.24
2023-05-18T08:21:54.077Z,14.17
2023-05-18T08:22:54.087Z,14.16
2023-05-18T08:23:54.073Z,14.20
2023-05-18T08:24:54.049Z,14.20
2023-05-18T08:25:54.017Z,14.24
2023-05-18T08:26:54.043Z,14.44
2023-05-18T08:27:54.048Z,14.60
2023-05-18T08:28:54.004Z,14.64
2023-05-18T08:29:55.734Z,14.60
2023-05-18T08:30:54.020Z,14.52
2023-05-18T08:31:54.016Z,14.42
2023-05-18T08:32:54.003Z,14.44
2023-05-18T08:33:53.988Z,14.59
2023-05-18T08:34:53.948Z,14.57
2023-05-18T08:35:53.928Z,14.64
2023-05-18T08:36:54.000Z,14.80
2023-05-18T08:37:53.972Z,14.87
2023-05-18T08:38:53.931Z,14.94
2023-05-18T08:39:56.559Z,14.97
2023-05-18T08:40:54.081Z,14.83
2023-05-18T08:41:53.881Z,14.82
2023-05-18T08:42:53.886Z,14.86
2023-05-18T08:43:53.865Z,15.05
2023-05-18T08:44:53.841Z,15.23
2023-05-18T08:45:53.798Z,15.37
2023-05-18T08:46:54.544Z,15.55
2023-05-18T08:47:53.869Z,15.55
2023-05-18T08:48:53.959Z,15.20
2023-05-18T08:49:53.807Z,15.33
2023-05-18T08:50:53.789Z,15.38
2023-05-18T08:51:53.751Z,15.53
2023-05-18T08:52:53.770Z,15.59
2023-05-18T08:53:53.801Z,15.53
2023-05-18T08:54:53.773Z,15.49
2023-05-18T08:55:53.787Z,15.58
2023-05-18T08:56:53.697Z,15.77
2023-05-18T08:57:53.695Z,15.74
2023-05-18T08:58:53.923Z,15.93
2023-05-18T08:59:53.669Z,15.99
2023-05-18T09:00:53.709Z,16.18
2023-05-18T09:01:53.668Z,16.11
2023-05-18T09:02:53.703Z,16.18
2023-05-18T09:03:53.665Z,16.16
2023-05-18T09:04:53.635Z,16.22
2023-05-18T09:05:53.868Z,16.32
2023-05-18T09:06:53.974Z,16.13
2023-05-18T09:07:53.609Z,16.16
2023-05-18T09:08:53.604Z,16.01
2023-05-18T09:09:53.614Z,15.89
2023-05-18T09:10:53.577Z,15.93
2023-05-18T09:11:54.494Z,16.01
2023-05-18T09:12:53.610Z,15.93
2023-05-18T09:13:53.527Z,16.16
2023-05-18T09:14:53.543Z,16.01
2023-05-18T09:15:54.547Z,16.10
2023-05-18T09:16:54.527Z,16.11
2023-05-18T09:17:53.547Z,16.18
2023-05-18T09:18:53.703Z,16.10
2023-05-18T09:19:54.208Z,16.08
2023-05-18T09:20:53.450Z,15.59
2023-05-18T09:21:53.439Z,15.85
2023-05-18T09:22:53.457Z,16.04
2023-05-18T09:23:53.479Z,15.96
2023-05-18T09:24:53.452Z,16.25
2023-05-18T09:25:53.446Z,16.40
2023-05-18T09:26:53.482Z,16.60
2023-05-18T09:27:53.421Z,16.62
2023-05-18T09:28:54.048Z,16.69
2023-05-18T09:29:53.347Z,16.51
2023-05-18T09:30:55.017Z,16.57
2023-05-18T09:31:55.010Z,16.59
2023-05-18T09:32:53.493Z,16.06
2023-05-18T09:33:54.044Z,15.88
2023-05-18T09:34:53.359Z,16.17
2023-05-18T09:35:53.299Z,16.40
2023-05-18T09:36:53.276Z,16.48
2023-05-18T09:37:53.269Z,16.01
2023-05-18T09:38:53.276Z,15.67
2023-05-18T09:39:53.254Z,15.89
2023-05-18T09:40:53.277Z,15.85
2023-05-18T09:41:53.482Z,15.92
2023-05-18T09:42:53.264Z,15.98
2023-05-18T09:43:53.219Z,16.36
2023-05-18T09:44:54.892Z,16.42
2023-05-18T09:45:53.245Z,16.57
2023-05-18T09:46:53.220Z,16.91
2023-05-18T09:47:53.194Z,17.00
2023-05-18T09:48:53.185Z,17.10
2023-05-18T09:49:53.196Z,17.00
2023-05-18T09:50:53.136Z,16.92
2023-05-18T09:51:53.114Z,17.07
2023-05-18T09:52:53.123Z,17.20
2023-05-18T09:53:53.108Z,17.30
2023-05-18T09:54:53.139Z,17.14
2023-05-18T09:55:53.108Z,17.32
2023-05-18T09:57:08.837Z,17.47
2023-05-18T09:57:53.053Z,17.40
2023-05-18T09:58:53.074Z,17.17
2023-05-18T09:59:53.043Z,17.10
2023-05-18T10:00:53.084Z,16.98
2023-05-18T10:01:53.014Z,17.06
2023-05-18T10:02:53.275Z,16.77
2023-05-18T10:03:53.068Z,16.62
2023-05-18T10:04:53.036Z,16.57
2023-05-18T10:05:52.992Z,16.85
2023-05-18T10:06:54.417Z,17.03
2023-05-18T10:07:52.944Z,17.21
2023-05-18T10:08:52.950Z,17.38
2023-05-18T10:09:52.956Z,17.35
2023-05-18T10:10:52.908Z,17.63
2023-05-18T10:11:52.904Z,17.94
2023-05-18T10:12:52.921Z,18.07
2023-05-18T10:13:52.892Z,17.63
2023-05-18T10:14:53.569Z,17.38
2023-05-18T10:15:52.885Z,17.40
2023-05-18T10:17:00.351Z,17.32
2023-05-18T10:17:53.097Z,17.60
2023-05-18T10:18:52.894Z,17.89
2023-05-18T10:19:52.816Z,18.09
2023-05-18T10:20:52.816Z,18.07
2023-05-18T10:21:52.802Z,18.07
2023-05-18T10:22:52.811Z,18.09
2023-05-18T10:23:52.806Z,18.10
2023-05-18T10:24:52.870Z,17.94
2023-05-18T10:25:52.783Z,17.98
2023-05-18T10:26:54.085Z,17.81
2023-05-18T10:27:52.754Z,17.77
2023-05-18T10:28:52.729Z,17.65
2023-05-18T10:29:52.780Z,17.74
2023-05-18T10:30:52.775Z,17.92
2023-05-18T10:31:52.703Z,17.81
2023-05-18T10:32:52.864Z,17.91
2023-05-18T10:33:52.677Z,18.10
2023-05-18T10:34:52.666Z,18.46
2023-05-18T10:35:52.678Z,18.50
2023-05-18T10:36:52.640Z,18.32
2023-05-18T10:37:52.627Z,18.41
2023-05-18T10:38:52.629Z,18.47
2023-05-18T10:39:52.621Z,18.36
2023-05-18T10:40:52.604Z,18.39
2023-05-18T10:41:52.663Z,18.44
2023-05-18T10:42:52.645Z,18.49
2023-05-18T10:43:52.557Z,18.36
2023-05-18T10:44:53.141Z,18.21
2023-05-18T10:45:52.633Z,18.26
2023-05-18T10:46:52.661Z,18.16
2023-05-18T10:47:52.677Z,18.31
2023-05-18T10:48:52.542Z,18.39
2023-05-18T10:49:52.549Z,18.35
2023-05-18T10:50:52.816Z,18.25
2023-05-18T10:51:52.509Z,18.44
2023-05-18T10:52:52.485Z,18.39
2023-05-18T10:53:55.956Z,18.59
2023-05-18T10:54:52.458Z,18.86
2023-05-18T10:55:52.429Z,18.83
2023-05-18T10:56:53.552Z,18.97
2023-05-18T10:57:53.627Z,19.02
2023-05-18T10:58:52.440Z,18.97
2023-05-18T10:59:52.439Z,18.87
2023-05-18T11:00:52.415Z,18.60
2023-05-18T11:01:52.418Z,18.51
2023-05-18T11:02:52.380Z,18.54
2023-05-18T11:03:52.355Z,18.66
2023-05-18T11:04:53.994Z,18.78
2023-05-18T11:05:52.395Z,18.96
2023-05-18T11:06:52.335Z,19.07
2023-05-18T11:07:52.333Z,19.20
2023-05-18T11:08:52.302Z,18.97
2023-05-18T11:09:52.295Z,18.97
2023-05-18T11:10:53.029Z,18.76
2023-05-18T11:11:52.303Z,18.90
2023-05-18T11:12:52.256Z,18.76
2023-05-18T11:13:52.281Z,18.59
2023-05-18T11:14:52.224Z,18.53
2023-05-18T11:15:52.317Z,18.66
2023-05-18T11:16:53.138Z,18.78
2023-05-18T11:17:52.223Z,18.78
2023-05-18T11:18:52.291Z,18.62
2023-05-18T11:19:52.190Z,18.71
2023-05-18T11:20:52.193Z,18.59
2023-05-18T11:21:52.186Z,18.57
2023-05-18T11:22:52.219Z,18.66
2023-05-18T11:23:52.165Z,18.62
2023-05-18T11:24:52.116Z,18.76
2023-05-18T11:25:52.134Z,18.83
2023-05-18T11:26:52.135Z,18.83
2023-05-18T11:27:52.109Z,18.71
2023-05-18T11:28:52.139Z,18.87
2023-05-18T11:30:00.639Z,18.91
2023-05-18T11:30:52.112Z,19.06
2023-05-18T11:31:52.163Z,19.39
2023-05-18T11:32:52.141Z,19.34
2023-05-18T11:33:52.085Z,19.47
2023-05-18T11:34:52.038Z,19.49
2023-05-18T11:35:52.059Z,19.35
2023-05-18T11:36:52.024Z,19.28
2023-05-18T11:37:52.031Z,19.46
2023-05-18T11:38:52.034Z,19.64
2023-05-18T11:39:59.101Z,19.78
2023-05-18T11:40:52.016Z,19.80
2023-05-18T11:41:51.970Z,19.72
2023-05-18T11:42:52.549Z,19.61
2023-05-18T11:43:51.968Z,19.52
2023-05-18T11:44:51.921Z,19.62
2023-05-18T11:45:51.953Z,19.47
2023-05-18T11:46:51.955Z,19.57
2023-05-18T11:47:52.011Z,19.68
2023-05-18T11:48:51.955Z,20.05
2023-05-18T11:49:51.922Z,20.12
2023-05-18T11:50:51.879Z,20.12
2023-05-18T11:51:51.925Z,19.90
2023-05-18T11:52:51.872Z,19.83
2023-05-18T11:53:51.868Z,19.75
2023-05-18T11:54:51.893Z,19.94
2023-05-18T11:55:51.890Z,20.33
2023-05-18T11:56:51.806Z,20.53
2023-05-18T11:57:51.811Z,20.54
2023-05-18T11:58:51.794Z,20.69
2023-05-18T11:59:51.887Z,20.90
2023-05-18T12:00:51.763Z,20.88
2023-05-18T12:01:51.910Z,20.66
2023-05-18T12:02:51.866Z,20.38
2023-05-18T12:03:51.863Z,19.89
2023-05-18T12:04:51.805Z,19.95
2023-05-18T12:05:51.757Z,19.85
2023-05-18T12:06:51.717Z,20.16
2023-05-18T12:07:51.745Z,20.35
2023-05-18T12:08:51.677Z,20.23
2023-05-18T12:09:51.817Z,20.01
2023-05-18T12:10:51.661Z,20.05
2023-05-18T12:11:51.654Z,20.16
2023-05-18T12:12:51.608Z,20.01
2023-05-18T12:13:51.674Z,20.08
2023-05-18T12:14:51.756Z,20.27
2023-05-18T12:15:51.621Z,20.64
2023-05-18T12:16:51.649Z,20.53
2023-05-18T12:17:51.653Z,20.12
2023-05-18T12:18:51.787Z,19.75
2023-05-18T12:19:51.642Z,19.38
2023-05-18T12:20:51.590Z,19.60
2023-05-18T12:21:51.553Z,19.50
2023-05-18T12:22:51.569Z,19.46
2023-05-18T12:23:51.519Z,19.28
2023-05-18T12:24:51.583Z,19.80
2023-05-18T12:25:51.541Z,20.31
2023-05-18T12:26:51.494Z,20.42
2023-05-18T12:27:51.520Z,20.20
2023-05-18T12:28:51.478Z,19.97
2023-05-18T12:29:51.456Z,19.78
2023-05-18T12:30:51.480Z,19.67
2023-05-18T12:31:51.528Z,19.53
2023-05-18T12:32:51.486Z,19.65
2023-05-18T12:33:51.428Z,19.87
2023-05-18T12:34:51.433Z,19.38
2023-05-18T12:35:51.632Z,19.12
2023-05-18T12:36:51.386Z,19.05
2023-05-18T12:37:51.394Z,19.10
2023-05-18T12:38:51.366Z,19.24
2023-05-18T12:39:51.344Z,19.28
2023-05-18T12:40:51.326Z,19.46
2023-05-18T12:41:51.327Z,19.82
2023-05-18T12:42:51.364Z,20.12
2023-05-18T12:43:52.081Z,20.25
2023-05-18T12:44:51.310Z,20.38
2023-05-18T12:45:51.298Z,20.48
2023-05-18T12:46:51.330Z,19.98
2023-05-18T12:47:51.355Z,20.26
2023-05-18T12:48:51.271Z,20.68
2023-05-18T12:49:51.269Z,20.88
2023-05-18T12:50:51.252Z,20.56
2023-05-18T12:51:51.234Z,20.56
2023-05-18T12:52:51.236Z,20.75
2023-05-18T12:53:51.227Z,20.98
2023-05-18T12:54:51.223Z,21.18
2023-05-18T12:55:51.192Z,21.27
2023-05-18T12:56:51.200Z,20.98
2023-05-18T12:57:51.154Z,20.90
2023-05-18T12:58:51.193Z,20.83
2023-05-18T12:59:51.147Z,20.78
2023-05-18T13:00:51.149Z,20.73
2023-05-18T13:01:51.224Z,20.85
2023-05-18T13:02:51.194Z,20.51
2023-05-18T13:03:51.232Z,20.56
2023-05-18T13:04:51.091Z,20.38